sensor_id;sensor_type;location;lat;lon;timestamp;pressure;altitude;pressure_sealevel;temperature;humidity
11190;BME280;5651;50.926;4.718;2023-04-23T00:00:22;100573.09;;;9.46;100.00
11190;BME280;5651;50.926;4.718;2023-04-23T00:02:51;100570.50;;;9.50;100.00
11190;BME280;5651;50.926;4.718;2023-04-23T00:05:19;100569.63;;;9.47;100.00
11190;BME280;5651;50.926;4.718;2023-04-23T00:07:45;100566.19;;;9.42;100.00
11190;BME280;5651;50.926;4.718;2023-04-23T00:10:11;100560.97;;;9.46;100.00
11190;BME280;5651;50.926;4.718;2023-04-23T00:12:38;100558.38;;;9.46;100.00
11190;BME280;5651;50.926;4.718;2023-04-23T00:15:05;100559.22;;;9.48;100.00
11190;BME280;5651;50.926;4.718;2023-04-23T00:17:31;100564.44;;;9.45;100.00
11190;BME280;5651;50.926;4.718;2023-04-23T00:19:57;100567.03;;;9.47;100.00
11190;BME280;5651;50.926;4.718;2023-04-23T00:22:23;100567.03;;;9.48;100.00
11190;BME280;5651;50.926;4.718;2023-04-23T00:24:49;100564.41;;;9.48;100.00
11190;BME280;5651;50.926;4.718;2023-04-23T00:27:15;100560.94;;;9.52;100.00
11190;BME280;5651;50.926;4.718;2023-04-23T00:29:42;100560.09;;;9.54;100.00
11190;BME280;5651;50.926;4.718;2023-04-23T00:32:10;100563.50;;;9.60;100.00
11190;BME280;5651;50.926;4.718;2023-04-23T00:34:36;100556.56;;;9.65;100.00
11190;BME280;5651;50.926;4.718;2023-04-23T00:37:02;100557.38;;;9.67;100.00
11190;BME280;5651;50.926;4.718;2023-04-23T00:39:31;100556.47;;;9.78;100.00
11190;BME280;5651;50.926;4.718;2023-04-23T00:41:57;100558.16;;;9.82;100.00
11190;BME280;5651;50.926;4.718;2023-04-23T00:44:24;100552.09;;;9.83;100.00
11190;BME280;5651;50.926;4.718;2023-04-23T00:46:50;100542.53;;;9.87;100.00
11190;BME280;5651;50.926;4.718;2023-04-23T00:49:18;100541.63;;;9.92;100.00
11190;BME280;5651;50.926;4.718;2023-04-23T00:51:43;100542.50;;;9.93;100.00
11190;BME280;5651;50.926;4.718;2023-04-23T00:54:09;100534.66;;;9.96;100.00
11190;BME280;5651;50.926;4.718;2023-04-23T00:56:35;100541.63;;;9.95;100.00
11190;BME280;5651;50.926;4.718;2023-04-23T00:59:02;100539.84;;;10.01;100.00
11190;BME280;5651;50.926;4.718;2023-04-23T01:01:28;100532.84;;;10.07;100.00
11190;BME280;5651;50.926;4.718;2023-04-23T01:03:54;100538.88;;;10.09;100.00
11190;BME280;5651;50.926;4.718;2023-04-23T01:06:21;100538.03;;;10.10;100.00
11190;BME280;5651;50.926;4.718;2023-04-23T01:08:49;100534.56;;;10.08;100.00
11190;BME280;5651;50.926;4.718;2023-04-23T01:11:15;100541.47;;;10.12;100.00
11190;BME280;5651;50.926;4.718;2023-04-23T01:13:42;100538.00;;;10.13;100.00
11190;BME280;5651;50.926;4.718;2023-04-23T01:16:09;100537.16;;;10.11;100.00
11190;BME280;5651;50.926;4.718;2023-04-23T01:18:35;100539.72;;;10.16;100.00
11190;BME280;5651;50.926;4.718;2023-04-23T01:21:02;100543.06;;;10.30;100.00
11190;BME280;5651;50.926;4.718;2023-04-23T01:23:28;100525.72;;;10.29;100.00
11190;BME280;5651;50.926;4.718;2023-04-23T01:25:54;100541.31;;;10.34;100.00
11190;BME280;5651;50.926;4.718;2023-04-23T01:28:20;100537.84;;;10.38;100.00
11190;BME280;5651;50.926;4.718;2023-04-23T01:30:46;100528.31;;;10.29;100.00
11190;BME280;5651;50.926;4.718;2023-04-23T01:33:13;100536.16;;;10.25;100.00
11190;BME280;5651;50.926;4.718;2023-04-23T01:35:40;100535.28;;;10.29;100.00
11190;BME280;5651;50.926;4.718;2023-04-23T01:38:10;100541.38;;;10.28;100.00
11190;BME280;5651;50.926;4.718;2023-04-23T01:40:37;100535.34;;;10.21;100.00
11190;BME280;5651;50.926;4.718;2023-04-23T01:43:04;100531.91;;;10.19;100.00
11190;BME280;5651;50.926;4.718;2023-04-23T01:45:30;100544.03;;;10.19;100.00
11190;BME280;5651;50.926;4.718;2023-04-23T01:47:58;100542.28;;;10.22;100.00
11190;BME280;5651;50.926;4.718;2023-04-23T01:50:24;100534.50;;;10.18;100.00
11190;BME280;5651;50.926;4.718;2023-04-23T01:52:50;100543.19;;;10.15;100.00
11190;BME280;5651;50.926;4.718;2023-04-23T01:55:16;100543.19;;;10.17;100.00
11190;BME280;5651;50.926;4.718;2023-04-23T01:57:45;100536.25;;;10.14;100.00
11190;BME280;5651;50.926;4.718;2023-04-23T02:00:11;100538.00;;;10.13;100.00
11190;BME280;5651;50.926;4.718;2023-04-23T02:02:39;100545.78;;;10.17;100.00
11190;BME280;5651;50.926;4.718;2023-04-23T02:05:17;100538.81;;;10.19;100.00
11190;BME280;5651;50.926;4.718;2023-04-23T02:07:44;100541.44;;;10.17;100.00
11190;BME280;5651;50.926;4.718;2023-04-23T02:10:10;100534.50;;;10.18;100.00
11190;BME280;5651;50.926;4.718;2023-04-23T02:12:37;100537.13;;;10.16;100.00
11190;BME280;5651;50.926;4.718;2023-04-23T02:15:04;100533.56;;;10.28;100.00
11190;BME280;5651;50.926;4.718;2023-04-23T02:17:31;100537.00;;;10.31;100.00
11190;BME280;5651;50.926;4.718;2023-04-23T02:19:57;100531.75;;;10.33;100.00
11190;BME280;5651;50.926;4.718;2023-04-23T02:22:23;100528.28;;;10.34;100.00
11190;BME280;5651;50.926;4.718;2023-04-23T02:24:51;100525.53;;;10.51;100.00
11190;BME280;5651;50.926;4.718;2023-04-23T02:27:18;100533.38;;;10.51;100.00
11190;BME280;5651;50.926;4.718;2023-04-23T02:29:45;100527.25;;;10.55;99.54
11190;BME280;5651;50.926;4.718;2023-04-23T02:32:11;100535.94;;;10.54;100.00
11190;BME280;5651;50.926;4.718;2023-04-23T02:34:37;100527.25;;;10.57;100.00
11190;BME280;5651;50.926;4.718;2023-04-23T02:37:03;100535.06;;;10.54;100.00
11190;BME280;5651;50.926;4.718;2023-04-23T02:39:30;100530.75;;;10.51;100.00
11190;BME280;5651;50.926;4.718;2023-04-23T02:41:56;100522.84;;;10.64;99.94
11190;BME280;5651;50.926;4.718;2023-04-23T02:44:25;100522.88;;;10.59;100.00
11190;BME280;5651;50.926;4.718;2023-04-23T02:46:54;100522.94;;;10.53;100.00
11190;BME280;5651;50.926;4.718;2023-04-23T02:49:20;100536.88;;;10.49;100.00
11190;BME280;5651;50.926;4.718;2023-04-23T02:51:46;100534.22;;;10.50;99.49
11190;BME280;5651;50.926;4.718;2023-04-23T02:54:12;100531.69;;;10.44;100.00
11190;BME280;5651;50.926;4.718;2023-04-23T02:56:39;100523.97;;;10.35;100.00
11190;BME280;5651;50.926;4.718;2023-04-23T02:59:05;100535.28;;;10.27;100.00
11190;BME280;5651;50.926;4.718;2023-04-23T03:01:31;100525.84;;;10.17;100.00
11190;BME280;5651;50.926;4.718;2023-04-23T03:03:58;100525.91;;;10.08;100.00
11190;BME280;5651;50.926;4.718;2023-04-23T03:06:24;100523.34;;;9.98;100.00
11190;BME280;5651;50.926;4.718;2023-04-23T03:08:50;100525.19;;;9.87;100.00
11190;BME280;5651;50.926;4.718;2023-04-23T03:11:15;100520.94;;;9.75;100.00
11190;BME280;5651;50.926;4.718;2023-04-23T03:13:41;100523.59;;;9.64;100.00
11190;BME280;5651;50.926;4.718;2023-04-23T03:16:07;100523.66;;;9.52;100.00
11190;BME280;5651;50.926;4.718;2023-04-23T03:18:34;100518.50;;;9.44;100.00
11190;BME280;5651;50.926;4.718;2023-04-23T03:21:00;100514.22;;;9.34;100.00
11190;BME280;5651;50.926;4.718;2023-04-23T03:23:26;100511.69;;;9.25;100.00
11190;BME280;5651;50.926;4.718;2023-04-23T03:25:51;100511.69;;;9.17;100.00
11190;BME280;5651;50.926;4.718;2023-04-23T03:28:17;100506.53;;;9.12;100.00
11190;BME280;5651;50.926;4.718;2023-04-23T03:30:43;100509.16;;;9.04;100.00
11190;BME280;5651;50.926;4.718;2023-04-23T03:33:09;100509.16;;;9.03;100.00
11190;BME280;5651;50.926;4.718;2023-04-23T03:35:35;100516.09;;;8.99;100.00
11190;BME280;5651;50.926;4.718;2023-04-23T03:38:03;100510.91;;;8.99;100.00
11190;BME280;5651;50.926;4.718;2023-04-23T03:40:29;100517.84;;;8.96;100.00
11190;BME280;5651;50.926;4.718;2023-04-23T03:42:55;100517.00;;;8.91;100.00
11190;BME280;5651;50.926;4.718;2023-04-23T03:45:22;100520.50;;;8.86;100.00
11190;BME280;5651;50.926;4.718;2023-04-23T03:47:48;100520.47;;;8.80;100.00
11190;BME280;5651;50.926;4.718;2023-04-23T03:50:14;100517.91;;;8.72;99.99
11190;BME280;5651;50.926;4.718;2023-04-23T03:52:42;100518.78;;;8.67;99.18
11190;BME280;5651;50.926;4.718;2023-04-23T03:55:08;100524.84;;;8.64;98.21
11190;BME280;5651;50.926;4.718;2023-04-23T03:57:37;100510.16;;;8.62;99.29
11190;BME280;5651;50.926;4.718;2023-04-23T04:00:04;100511.00;;;8.65;100.00
11190;BME280;5651;50.926;4.718;2023-04-23T04:02:33;100504.94;;;8.72;100.00
11190;BME280;5651;50.926;4.718;2023-04-23T04:04:59;100517.03;;;8.78;100.00
11190;BME280;5651;50.926;4.718;2023-04-23T04:07:25;100511.81;;;8.94;100.00
11190;BME280;5651;50.926;4.718;2023-04-23T04:09:51;100510.94;;;8.95;100.00
11190;BME280;5651;50.926;4.718;2023-04-23T04:12:17;100503.97;;;9.01;100.00
11190;BME280;5651;50.926;4.718;2023-04-23T04:14:44;100505.72;;;9.01;100.00
11190;BME280;5651;50.926;4.718;2023-04-23T04:17:10;100507.44;;;9.02;100.00
11190;BME280;5651;50.926;4.718;2023-04-23T04:19:37;100514.34;;;9.03;100.00
11190;BME280;5651;50.926;4.718;2023-04-23T04:22:03;100522.16;;;9.04;100.00
11190;BME280;5651;50.926;4.718;2023-04-23T04:24:29;100511.72;;;9.08;100.00
11190;BME280;5651;50.926;4.718;2023-04-23T04:26:57;100508.25;;;9.10;100.00
11190;BME280;5651;50.926;4.718;2023-04-23T04:29:25;100510.00;;;9.08;100.00
11190;BME280;5651;50.926;4.718;2023-04-23T04:31:52;100514.34;;;9.06;100.00
11190;BME280;5651;50.926;4.718;2023-04-23T04:34:18;100520.38;;;9.14;100.00
11190;BME280;5651;50.926;4.718;2023-04-23T04:36:44;100522.13;;;9.11;100.00
11190;BME280;5651;50.926;4.718;2023-04-23T04:39:11;100529.00;;;9.19;100.00
11190;BME280;5651;50.926;4.718;2023-04-23T04:41:39;100526.44;;;9.18;100.00
11190;BME280;5651;50.926;4.718;2023-04-23T04:44:06;100526.44;;;9.18;100.00
11190;BME280;5651;50.926;4.718;2023-04-23T04:46:34;100524.69;;;9.18;100.00
11190;BME280;5651;50.926;4.718;2023-04-23T04:49:09;100518.63;;;9.18;100.00
11190;BME280;5651;50.926;4.718;2023-04-23T04:51:36;100522.13;;;9.14;100.00
11190;BME280;5651;50.926;4.718;2023-04-23T04:54:02;100512.59;;;9.11;100.00
11190;BME280;5651;50.926;4.718;2023-04-23T04:56:28;100522.13;;;9.11;100.00
11190;BME280;5651;50.926;4.718;2023-04-23T04:58:54;100517.78;;;9.07;100.00
11190;BME280;5651;50.926;4.718;2023-04-23T05:01:21;100512.59;;;9.11;100.00
11190;BME280;5651;50.926;4.718;2023-04-23T05:03:49;100517.78;;;9.10;100.00
11190;BME280;5651;50.926;4.718;2023-04-23T05:06:15;100522.16;;;9.09;100.00
11190;BME280;5651;50.926;4.718;2023-04-23T05:08:42;100516.06;;;9.12;100.00
11190;BME280;5651;50.926;4.718;2023-04-23T05:11:15;100516.06;;;9.12;100.00
11190;BME280;5651;50.926;4.718;2023-04-23T05:13:41;100520.38;;;9.14;100.00
11190;BME280;5651;50.926;4.718;2023-04-23T05:16:07;100517.75;;;9.20;100.00
11190;BME280;5651;50.926;4.718;2023-04-23T05:18:34;100510.78;;;9.26;100.00
11190;BME280;5651;50.926;4.718;2023-04-23T05:20:59;100524.66;;;9.26;100.00
11190;BME280;5651;50.926;4.718;2023-04-23T05:23:25;100524.63;;;9.37;100.00
11190;BME280;5651;50.926;4.718;2023-04-23T05:25:51;100520.25;;;9.41;100.00
11190;BME280;5651;50.926;4.718;2023-04-23T05:28:20;100520.28;;;9.39;100.00
11190;BME280;5651;50.926;4.718;2023-04-23T05:30:46;100518.44;;;9.52;100.00
11190;BME280;5651;50.926;4.718;2023-04-23T05:33:12;100513.25;;;9.55;100.00
11190;BME280;5651;50.926;4.718;2023-04-23T05:35:38;100508.88;;;9.56;100.00
11190;BME280;5651;50.926;4.718;2023-04-23T05:38:04;100509.69;;;9.68;100.00
11190;BME280;5651;50.926;4.718;2023-04-23T05:40:31;100513.13;;;9.75;100.00
11190;BME280;5651;50.926;4.718;2023-04-23T05:42:57;100511.31;;;9.82;100.00
11190;BME280;5651;50.926;4.718;2023-04-23T05:45:23;100509.56;;;9.87;100.00
11190;BME280;5651;50.926;4.718;2023-04-23T05:47:49;100513.03;;;9.89;100.00
11190;BME280;5651;50.926;4.718;2023-04-23T05:50:17;100516.44;;;9.96;100.00
11190;BME280;5651;50.926;4.718;2023-04-23T05:52:43;100510.34;;;9.98;100.00
11190;BME280;5651;50.926;4.718;2023-04-23T05:55:09;100509.44;;;10.01;100.00
11190;BME280;5651;50.926;4.718;2023-04-23T05:57:36;100511.16;;;10.07;100.00
11190;BME280;5651;50.926;4.718;2023-04-23T06:00:04;100505.88;;;10.16;100.00
11190;BME280;5651;50.926;4.718;2023-04-23T06:02:30;100504.09;;;10.23;100.00
11190;BME280;5651;50.926;4.718;2023-04-23T06:04:58;100501.47;;;10.24;100.00
11190;BME280;5651;50.926;4.718;2023-04-23T06:07:24;100504.84;;;10.31;100.00
11190;BME280;5651;50.926;4.718;2023-04-23T06:09:50;100511.81;;;10.34;100.00
11190;BME280;5651;50.926;4.718;2023-04-23T06:12:16;100508.25;;;10.44;100.00
11190;BME280;5651;50.926;4.718;2023-04-23T06:14:42;100506.41;;;10.54;100.00
11190;BME280;5651;50.926;4.718;2023-04-23T06:17:08;100502.06;;;10.57;100.00
11190;BME280;5651;50.926;4.718;2023-04-23T06:19:34;100509.00;;;10.57;100.00
11190;BME280;5651;50.926;4.718;2023-04-23T06:22:00;100497.59;;;10.69;100.00
11190;BME280;5651;50.926;4.718;2023-04-23T06:24:26;100508.81;;;10.75;100.00
11190;BME280;5651;50.926;4.718;2023-04-23T06:26:51;100506.09;;;10.85;100.00
11190;BME280;5651;50.926;4.718;2023-04-23T06:29:18;100499.09;;;10.90;100.00
11190;BME280;5651;50.926;4.718;2023-04-23T06:31:43;100497.31;;;10.92;100.00
11190;BME280;5651;50.926;4.718;2023-04-23T06:34:09;100493.72;;;11.02;100.00
11190;BME280;5651;50.926;4.718;2023-04-23T06:36:35;100483.28;;;11.04;100.00
11190;BME280;5651;50.926;4.718;2023-04-23T06:39:01;100490.13;;;11.11;100.00
11190;BME280;5651;50.926;4.718;2023-04-23T06:41:27;100488.28;;;11.19;100.00
11190;BME280;5651;50.926;4.718;2023-04-23T06:43:53;100486.47;;;11.26;100.00
11190;BME280;5651;50.926;4.718;2023-04-23T06:46:18;100478.50;;;11.37;100.00
11190;BME280;5651;50.926;4.718;2023-04-23T06:48:44;100478.44;;;11.41;100.00
11190;BME280;5651;50.926;4.718;2023-04-23T06:51:11;100471.34;;;11.51;100.00
11190;BME280;5651;50.926;4.718;2023-04-23T06:53:37;100472.13;;;11.58;100.00
11190;BME280;5651;50.926;4.718;2023-04-23T06:56:03;100462.34;;;11.71;100.00
11190;BME280;5651;50.926;4.718;2023-04-23T06:58:29;100468.25;;;11.82;100.00
11190;BME280;5651;50.926;4.718;2023-04-23T07:00:58;100460.22;;;11.96;100.00
11190;BME280;5651;50.926;4.718;2023-04-23T07:03:29;100471.53;;;11.95;100.00
11190;BME280;5651;50.926;4.718;2023-04-23T07:05:56;100468.91;;;11.98;100.00
11190;BME280;5651;50.926;4.718;2023-04-23T07:08:22;100475.66;;;12.12;100.00
11190;BME280;5651;50.926;4.718;2023-04-23T07:10:48;100464.34;;;12.11;100.00
11190;BME280;5651;50.926;4.718;2023-04-23T07:13:15;100465.06;;;12.19;100.00
11190;BME280;5651;50.926;4.718;2023-04-23T07:15:41;100458.84;;;12.27;100.00
11190;BME280;5651;50.926;4.718;2023-04-23T07:18:07;100463.94;;;12.34;100.00
11190;BME280;5651;50.926;4.718;2023-04-23T07:20:33;100462.91;;;12.43;100.00
11190;BME280;5651;50.926;4.718;2023-04-23T07:22:59;100460.13;;;12.51;100.00
11190;BME280;5651;50.926;4.718;2023-04-23T07:25:25;100446.97;;;12.56;100.00
11190;BME280;5651;50.926;4.718;2023-04-23T07:27:52;100439.00;;;12.63;100.00
11190;BME280;5651;50.926;4.718;2023-04-23T07:30:19;100446.53;;;12.79;100.00
11190;BME280;5651;50.926;4.718;2023-04-23T07:32:45;100437.72;;;12.83;100.00
11190;BME280;5651;50.926;4.718;2023-04-23T07:35:11;100438.47;;;12.88;100.00
11190;BME280;5651;50.926;4.718;2023-04-23T07:37:37;100435.63;;;13.00;100.00
11190;BME280;5651;50.926;4.718;2023-04-23T07:40:04;100433.72;;;13.09;100.00
11190;BME280;5651;50.926;4.718;2023-04-23T07:42:30;100436.78;;;13.28;100.00
11190;BME280;5651;50.926;4.718;2023-04-23T07:44:57;100435.81;;;13.32;100.00
11190;BME280;5651;50.926;4.718;2023-04-23T07:47:23;100438.84;;;13.53;100.00
11190;BME280;5651;50.926;4.718;2023-04-23T07:49:49;100437.16;;;13.52;100.00
11190;BME280;5651;50.926;4.718;2023-04-23T07:52:16;100434.50;;;13.53;100.00
11190;BME280;5651;50.926;4.718;2023-04-23T07:54:42;100430.78;;;13.62;100.00
11190;BME280;5651;50.926;4.718;2023-04-23T07:57:08;100433.22;;;13.70;100.00
11190;BME280;5651;50.926;4.718;2023-04-23T07:59:35;100425.09;;;13.81;100.00
11190;BME280;5651;50.926;4.718;2023-04-23T08:02:04;100439.56;;;13.95;100.00
11190;BME280;5651;50.926;4.718;2023-04-23T08:04:30;100438.63;;;13.98;100.00
11190;BME280;5651;50.926;4.718;2023-04-23T08:06:56;100427.97;;;14.06;100.00
11190;BME280;5651;50.926;4.718;2023-04-23T08:09:21;100424.09;;;14.19;100.00
11190;BME280;5651;50.926;4.718;2023-04-23T08:11:47;100434.41;;;14.27;100.00
11190;BME280;5651;50.926;4.718;2023-04-23T08:14:13;100429.19;;;14.25;98.55
11190;BME280;5651;50.926;4.718;2023-04-23T08:16:39;100408.16;;;14.29;97.45
11190;BME280;5651;50.926;4.718;2023-04-23T08:19:05;100422.69;;;14.39;97.09
11190;BME280;5651;50.926;4.718;2023-04-23T08:21:32;100422.44;;;14.48;94.01
11190;BME280;5651;50.926;4.718;2023-04-23T08:23:58;100405.78;;;14.51;95.11
11190;BME280;5651;50.926;4.718;2023-04-23T08:26:24;100412.44;;;14.63;95.50
11190;BME280;5651;50.926;4.718;2023-04-23T08:28:50;100414.69;;;14.77;92.61
11190;BME280;5651;50.926;4.718;2023-04-23T08:31:16;100420.91;;;14.74;91.77
11190;BME280;5651;50.926;4.718;2023-04-23T08:33:42;100422.44;;;14.81;91.49
11190;BME280;5651;50.926;4.718;2023-04-23T08:36:08;100418.50;;;14.96;92.60
11190;BME280;5651;50.926;4.718;2023-04-23T08:38:34;100418.97;;;15.09;89.39
11190;BME280;5651;50.926;4.718;2023-04-23T08:41:01;100413.69;;;15.11;89.73
11190;BME280;5651;50.926;4.718;2023-04-23T08:46:21;100411.41;;;15.28;91.11
11190;BME280;5651;50.926;4.718;2023-04-23T08:48:51;100404.06;;;15.40;91.13
11190;BME280;5651;50.926;4.718;2023-04-23T08:51:20;100417.97;;;15.42;89.20
11190;BME280;5651;50.926;4.718;2023-04-23T08:53:50;100422.81;;;15.56;87.89
11190;BME280;5651;50.926;4.718;2023-04-23T08:56:20;100405.31;;;15.28;86.11
11190;BME280;5651;50.926;4.718;2023-04-23T08:58:49;100406.22;;;15.27;86.74
11190;BME280;5651;50.926;4.718;2023-04-23T09:01:16;100407.59;;;15.39;88.25
11190;BME280;5651;50.926;4.718;2023-04-23T09:03:42;100412.84;;;15.65;83.40
11190;BME280;5651;50.926;4.718;2023-04-23T09:06:08;100408.84;;;15.53;83.39
11190;BME280;5651;50.926;4.718;2023-04-23T09:08:34;100406.63;;;15.41;84.22
11190;BME280;5651;50.926;4.718;2023-04-23T09:11:01;100407.44;;;15.43;84.43
11190;BME280;5651;50.926;4.718;2023-04-23T09:13:29;100399.59;;;15.42;84.27
11190;BME280;5651;50.926;4.718;2023-04-23T09:15:55;100379.09;;;15.26;84.25
11190;BME280;5651;50.926;4.718;2023-04-23T09:18:21;100396.53;;;15.29;83.33
11190;BME280;5651;50.926;4.718;2023-04-23T09:20:48;100392.94;;;15.31;85.15
11190;BME280;5651;50.926;4.718;2023-04-23T09:23:15;100387.06;;;15.51;85.03
11190;BME280;5651;50.926;4.718;2023-04-23T09:25:41;100386.72;;;15.61;84.35
11190;BME280;5651;50.926;4.718;2023-04-23T09:28:07;100387.31;;;15.71;84.37
11190;BME280;5651;50.926;4.718;2023-04-23T09:30:42;100391.59;;;15.73;85.30
11190;BME280;5651;50.926;4.718;2023-04-23T09:33:10;100378.44;;;16.00;85.22
11190;BME280;5651;50.926;4.718;2023-04-23T09:35:37;100385.63;;;16.20;84.05
11190;BME280;5651;50.926;4.718;2023-04-23T09:38:03;100381.59;;;16.10;84.29
11190;BME280;5651;50.926;4.718;2023-04-23T09:40:32;100374.59;;;16.10;80.89
11190;BME280;5651;50.926;4.718;2023-04-23T09:42:58;100379.53;;;16.20;81.47
11190;BME280;5651;50.926;4.718;2023-04-23T09:45:24;100366.84;;;16.31;81.57
11190;BME280;5651;50.926;4.718;2023-04-23T09:47:55;100368.78;;;16.26;80.18
11190;BME280;5651;50.926;4.718;2023-04-23T09:50:35;100363.16;;;16.60;79.40
11190;BME280;5651;50.926;4.718;2023-04-23T09:53:02;100365.81;;;16.59;79.58
11190;BME280;5651;50.926;4.718;2023-04-23T09:55:33;100358.72;;;16.61;80.11
11190;BME280;5651;50.926;4.718;2023-04-23T09:58:04;100351.97;;;16.54;76.67
11190;BME280;5651;50.926;4.718;2023-04-23T10:00:33;100351.72;;;16.61;78.09
11190;BME280;5651;50.926;4.718;2023-04-23T10:02:59;100355.09;;;16.65;77.69
11190;BME280;5651;50.926;4.718;2023-04-23T10:05:26;100340.25;;;16.62;76.60
11190;BME280;5651;50.926;4.718;2023-04-23T10:07:52;100350.25;;;16.53;76.09
11190;BME280;5651;50.926;4.718;2023-04-23T10:10:18;100335.69;;;16.44;76.96
11190;BME280;5651;50.926;4.718;2023-04-23T10:12:45;100350.00;;;16.37;77.18
11190;BME280;5651;50.926;4.718;2023-04-23T10:15:12;100337.69;;;16.61;76.80
11190;BME280;5651;50.926;4.718;2023-04-23T10:17:39;100343.94;;;16.80;74.73
11190;BME280;5651;50.926;4.718;2023-04-23T10:20:07;100334.47;;;16.76;75.27
11190;BME280;5651;50.926;4.718;2023-04-23T10:22:34;100324.59;;;16.82;77.15
11190;BME280;5651;50.926;4.718;2023-04-23T10:25:08;100331.69;;;17.03;76.74
11190;BME280;5651;50.926;4.718;2023-04-23T10:27:40;100326.47;;;16.79;76.68
11190;BME280;5651;50.926;4.718;2023-04-23T10:30:08;100325.72;;;16.76;78.18
11190;BME280;5651;50.926;4.718;2023-04-23T10:32:34;100330.28;;;16.71;77.29
11190;BME280;5651;50.926;4.718;2023-04-23T10:35:01;100326.56;;;16.76;74.99
11190;BME280;5651;50.926;4.718;2023-04-23T10:37:27;100319.06;;;16.89;73.36
11190;BME280;5651;50.926;4.718;2023-04-23T10:39:55;100308.22;;;16.75;75.70
11190;BME280;5651;50.926;4.718;2023-04-23T10:42:23;100308.59;;;16.88;75.04
11190;BME280;5651;50.926;4.718;2023-04-23T10:44:49;100305.69;;;16.50;75.92
11190;BME280;5651;50.926;4.718;2023-04-23T10:47:16;100306.75;;;16.68;76.55
11190;BME280;5651;50.926;4.718;2023-04-23T10:49:43;100300.00;;;16.83;77.13
11190;BME280;5651;50.926;4.718;2023-04-23T10:52:12;100288.94;;;16.74;76.65
11190;BME280;5651;50.926;4.718;2023-04-23T10:54:42;100291.94;;;16.65;75.90
11190;BME280;5651;50.926;4.718;2023-04-23T10:57:10;100293.22;;;16.77;74.98
11190;BME280;5651;50.926;4.718;2023-04-23T10:59:42;100283.63;;;16.76;73.47
11190;BME280;5651;50.926;4.718;2023-04-23T11:02:16;100278.03;;;16.84;73.20
11190;BME280;5651;50.926;4.718;2023-04-23T11:04:46;100278.72;;;16.67;74.13
11190;BME280;5651;50.926;4.718;2023-04-23T11:07:13;100265.56;;;16.67;73.64
11190;BME280;5651;50.926;4.718;2023-04-23T11:09:45;100265.06;;;16.57;72.78
11190;BME280;5651;50.926;4.718;2023-04-23T11:14:50;100256.81;;;16.88;72.84
11190;BME280;5651;50.926;4.718;2023-04-23T11:17:20;100250.75;;;16.64;71.16
11190;BME280;5651;50.926;4.718;2023-04-23T11:20:06;100251.06;;;16.78;71.79
11190;BME280;5651;50.926;4.718;2023-04-23T11:22:41;100247.13;;;16.44;71.14
11190;BME280;5651;50.926;4.718;2023-04-23T11:25:08;100242.56;;;16.72;71.98
11190;BME280;5651;50.926;4.718;2023-04-23T11:27:38;100233.84;;;16.70;70.03
11190;BME280;5651;50.926;4.718;2023-04-23T11:30:10;100233.13;;;16.66;71.09
11190;BME280;5651;50.926;4.718;2023-04-23T11:32:38;100238.66;;;16.82;72.86
11190;BME280;5651;50.926;4.718;2023-04-23T11:35:06;100225.81;;;16.97;71.65
11190;BME280;5651;50.926;4.718;2023-04-23T11:37:32;100212.59;;;17.19;72.33
11190;BME280;5651;50.926;4.718;2023-04-23T11:40:05;100214.19;;;17.23;69.42
11190;BME280;5651;50.926;4.718;2023-04-23T11:42:44;100214.28;;;17.20;69.43
11190;BME280;5651;50.926;4.718;2023-04-23T11:45:22;100211.19;;;17.31;69.90
11190;BME280;5651;50.926;4.718;2023-04-23T11:47:50;100195.53;;;17.48;69.39
11190;BME280;5651;50.926;4.718;2023-04-23T11:50:19;100191.97;;;17.49;69.01
11190;BME280;5651;50.926;4.718;2023-04-23T11:52:46;100188.28;;;17.53;70.54
11190;BME280;5651;50.926;4.718;2023-04-23T11:55:12;100189.16;;;17.33;67.13
11190;BME280;5651;50.926;4.718;2023-04-23T11:57:42;100182.31;;;17.08;65.93
11190;BME280;5651;50.926;4.718;2023-04-23T12:02:59;100165.13;;;17.41;67.88
11190;BME280;5651;50.926;4.718;2023-04-23T12:05:33;100154.91;;;17.54;67.21
11190;BME280;5651;50.926;4.718;2023-04-23T12:08:30;100164.84;;;17.47;66.58
11190;BME280;5651;50.926;4.718;2023-04-23T12:11:01;100156.91;;;17.28;64.16
11190;BME280;5651;50.926;4.718;2023-04-23T12:13:28;100169.66;;;16.96;65.39
11190;BME280;5651;50.926;4.718;2023-04-23T12:15:57;100156.28;;;16.80;65.60
11190;BME280;5651;50.926;4.718;2023-04-23T12:18:34;100168.97;;;16.70;66.11
11190;BME280;5651;50.926;4.718;2023-04-23T12:21:06;100171.03;;;16.62;68.12
11190;BME280;5651;50.926;4.718;2023-04-23T12:23:32;100168.13;;;16.47;68.70
11190;BME280;5651;50.926;4.718;2023-04-23T12:26:01;100168.47;;;16.16;70.46
11190;BME280;5651;50.926;4.718;2023-04-23T12:28:31;100171.31;;;16.10;71.39
11190;BME280;5651;50.926;4.718;2023-04-23T12:31:01;100171.06;;;15.94;72.29
11190;BME280;5651;50.926;4.718;2023-04-23T12:33:30;100174.34;;;15.75;73.23
11190;BME280;5651;50.926;4.718;2023-04-23T12:35:56;100178.25;;;15.65;73.22
11190;BME280;5651;50.926;4.718;2023-04-23T12:38:23;100193.47;;;16.04;71.69
11190;BME280;5651;50.926;4.718;2023-04-23T12:40:53;100193.53;;;15.77;74.17
11190;BME280;5651;50.926;4.718;2023-04-23T12:43:20;100191.13;;;15.71;75.93
11190;BME280;5651;50.926;4.718;2023-04-23T12:45:46;100194.66;;;15.46;78.50
11190;BME280;5651;50.926;4.718;2023-04-23T12:48:12;100194.41;;;15.52;78.27
11190;BME280;5651;50.926;4.718;2023-04-23T12:50:38;100201.03;;;15.39;79.85
11190;BME280;5651;50.926;4.718;2023-04-23T12:53:04;100198.56;;;15.34;81.50
11190;BME280;5651;50.926;4.718;2023-04-23T12:55:31;100200.69;;;14.98;84.02
11190;BME280;5651;50.926;4.718;2023-04-23T12:57:58;100194.28;;;14.80;87.78
11190;BME280;5651;50.926;4.718;2023-04-23T13:00:25;100195.06;;;14.82;86.92
11190;BME280;5651;50.926;4.718;2023-04-23T13:02:51;100188.31;;;14.74;87.80
11190;BME280;5651;50.926;4.718;2023-04-23T13:05:17;100181.72;;;14.61;90.53